Terminal Aerodrome Forecast
Issued by NWS Miami, FL

Home | Current Version | Previous Version | Text Only | Print | Product List | Glossary On
Versions: 1 2 3 4 5 6 7 8 9 10 11 12 13 14 15 16 17 18 19 20 21 22 23 24 25 26
000
FTUS42 KMFL 270846 AAA
TAFPBI
TAF AMD
KPBI 270846Z 2709/2806 VRB03KT P6SM FEW024 BKN250
      TEMPO 2709/2712 26005KT
     FM271600 15007KT P6SM VCTS SCT025CB SCT070 BKN250
     FM280000 24005KT P6SM VCSH SCT030 BKN050=

USA.gov is the U.S. government's official web portal to all federal, state and local government web resources and services.